Hemlock, IN (46937)

12:21 PM EDT on March 30, 2017 (GMT -0400)
Walton Lake, Kokomo, IN | | Change Station

Elev 840 ft 40.44 °N, 86.08 °W | Updated 40 minutes ago

Mostly Cloudy
Mostly Cloudy
50.9 °F
Feels Like 50.9 °F
N
7.0
Wind Variable Wind from East

Today
High -- | Low -- °F
--% Chance of Precip.
Yesterday
High -- | Low -- °F
Precip. -- in
Pressure 29.73 in
Visibility 10.0 miles
Clouds Scattered Clouds 9500 ft
Dew Point 44 °F
Humidity 79%
Rainfall 0.07 in
Snow Depth Not available.
7:30 AM 8:06 PM
Waxing Crescent, 9% visible
METAR KOKK 301556Z AUTO 09020G26KT 10SM SCT095 09/07 A2972 RMK AO2 PK WND 09026/1547 TSE01RAE1457 SLP068 T00940072
Pressure 29.73 in
Visibility 10.0 miles
Clouds Scattered Clouds 9500 ft
Dew Point 44 °F
Humidity 79%
Rainfall 0.07 in
Snow Depth Not available.
7:30 AM 8:06 PM
Waxing Crescent, 9% visible
METAR KOKK 301556Z AUTO 09020G26KT 10SM SCT095 09/07 A2972 RMK AO2 PK WND 09026/1547 TSE01RAE1457 SLP068 T00940072

Get Severe Weather Alerts

Thanks for signing up!

Be on the lookout for a verification email in your inbox.

You'll start receiving the daily forecast at 8 AM.

×

10-Day Weather Forecast

Almanac

Astronomy

Mar. 30, 2017 Rise Set
Actual Time
Civil Twilight
Nautical Twilight
Astronomical Twilight
Moon
Length of Visible Light
Length of Day
Tomorrow will be .
, % of the Moon is Illuminated

Today's Extremes

State Highs State Lows

Community

WunderPhotos

Upload Photos

1,962,540 photos uploaded!

WunderBlog® & News

Nearby

Air Quality

  Air Quality AQ Index Pollutant
Not available.

Snow Depth

Station Depth Elevation

Earthquake Activity

City Distance Mag. Time & Date
Minimum magnitude displayed is 2.5.

Earthquake Activity

City Distance Mag. Time & Date
Minimum magnitude displayed is 2.5.

Coastal Water Temperatures

Place Temperature

Stations

Nearby Weather Stations

Station Location Temp. Windchill Dew Point Humidity Wind Precip. Elev Updated Type
                   

Watches & Warnings

There are currently no watches in effect.